createdAt,value
2022-08-25T01:43:13.609Z,96824.56
2022-08-25T01:45:51.611Z,96826.06
2022-08-25T01:48:29.376Z,96820.22
2022-08-25T01:51:14.456Z,96818.59
2022-08-25T01:54:12.960Z,96817.47
2022-08-25T01:56:44.807Z,96813.13
2022-08-25T01:59:24.988Z,96811.50
2022-08-25T02:04:42.513Z,96815.19
2022-08-25T02:07:29.149Z,96809.25
2022-08-25T02:10:05.778Z,96812.84
2022-08-25T02:12:42.463Z,96814.66
2022-08-25T02:15:20.751Z,96810.63
2022-08-25T02:17:57.320Z,96811.69
2022-08-25T02:26:14.182Z,96804.19
2022-08-25T02:28:52.171Z,96802.25
2022-08-25T02:31:37.982Z,96792.97
2022-08-25T02:34:17.763Z,96795.03
2022-08-25T02:36:54.355Z,96791.78
2022-08-25T02:39:29.138Z,96792.84
2022-08-25T02:42:05.752Z,96786.50
2022-08-25T02:44:43.930Z,96790.53
2022-08-25T02:47:20.343Z,96790.88
2022-08-25T03:11:47.391Z,96784.84
2022-08-25T03:14:24.189Z,96781.63
2022-08-25T03:19:42.125Z,96780.25
2022-08-25T03:22:19.477Z,96775.19
2022-08-25T03:25:23.889Z,96774.63
2022-08-25T03:28:08.946Z,96777.72
2022-08-25T03:30:45.038Z,96774.28
2022-08-25T03:33:14.765Z,96768.28
2022-08-25T03:35:47.754Z,96773.59
2022-08-25T03:38:28.313Z,96774.84
2022-08-25T03:41:02.118Z,96768.13
2022-08-25T03:43:37.969Z,96774.88
2022-08-25T03:46:10.702Z,96779.59
2022-08-25T03:51:32.414Z,96780.53
2022-08-25T03:54:06.096Z,96776.97
2022-08-25T03:56:47.400Z,96772.97
2022-08-25T03:59:29.951Z,96773.91
2022-08-25T04:02:01.719Z,96773.31
2022-08-25T04:04:36.689Z,96775.06
2022-08-25T04:07:18.283Z,96776.91
2022-08-25T04:09:56.876Z,96776.56
2022-08-25T04:12:32.077Z,96782.34
2022-08-25T04:15:14.398Z,96795.00
2022-08-25T04:17:48.147Z,96794.41
2022-08-25T04:20:24.268Z,96804.66
2022-08-25T04:22:59.992Z,96787.88
2022-08-25T04:25:33.464Z,96796.47
2022-08-25T04:28:07.227Z,96789.03
2022-08-25T04:30:52.028Z,96787.66
2022-08-25T04:33:28.517Z,96793.75
2022-08-25T04:36:02.486Z,96797.44
2022-08-25T04:38:30.808Z,96787.06
2022-08-25T04:40:58.979Z,96786.16
2022-08-25T04:43:27.095Z,96786.63
2022-08-25T04:45:56.077Z,96787.31
2022-08-25T04:48:24.041Z,96789.59
2022-08-25T04:50:51.616Z,96785.94
2022-08-25T04:53:21.558Z,96792.03
2022-08-25T04:55:49.767Z,96784.88
2022-08-25T04:58:18.024Z,96786.72
2022-08-25T05:00:46.680Z,96784.78
2022-08-25T05:03:15.652Z,96794.19
2022-08-25T05:05:43.188Z,96782.91
2022-08-25T05:08:11.053Z,96792.34
2022-08-25T05:10:40.797Z,96790.25
2022-08-25T05:13:09.927Z,96790.97
2022-08-25T05:15:52.712Z,96782.00
2022-08-25T05:18:23.770Z,96786.72
2022-08-25T05:20:53.749Z,96781.66
2022-08-25T05:23:22.295Z,96787.94
2022-08-25T05:25:50.964Z,96796.72
2022-08-25T05:28:19.317Z,96794.19
2022-08-25T05:30:48.658Z,96797.53
2022-08-25T05:33:17.180Z,96795.81
2022-08-25T05:35:46.109Z,96795.13
2022-08-25T05:38:15.420Z,96791.44
2022-08-25T05:40:43.225Z,96784.06
2022-08-25T05:43:10.862Z,96784.91
2022-08-25T05:45:39.283Z,96779.16
2022-08-25T05:48:07.118Z,96778.44
2022-08-25T05:50:34.740Z,96779.38
2022-08-25T05:53:03.616Z,96788.09
2022-08-25T05:55:31.226Z,96776.47
2022-08-25T05:57:58.876Z,96778.69
2022-08-25T06:00:26.409Z,96776.34
2022-08-25T06:02:52.963Z,96771.41
2022-08-25T06:05:23.047Z,96771.41
2022-08-25T06:07:52.749Z,96769.81
2022-08-25T06:10:22.302Z,96775.09
2022-08-25T06:12:50.200Z,96774.63
2022-08-25T06:15:20.214Z,96772.56
2022-08-25T06:17:48.531Z,96775.56
2022-08-25T06:20:18.138Z,96773.22
2022-08-25T06:22:46.162Z,96766.66
2022-08-25T06:25:17.479Z,96768.59
2022-08-25T06:27:46.459Z,96762.63
2022-08-25T06:30:20.217Z,96764.88
2022-08-25T06:32:52.408Z,96760.03
2022-08-25T06:35:20.873Z,96769.22
2022-08-25T06:37:48.530Z,96764.63
2022-08-25T06:40:16.968Z,96764.00
2022-08-25T06:42:48.846Z,96766.59
2022-08-25T06:45:16.604Z,96760.66
2022-08-25T06:47:45.642Z,96764.28
2022-08-25T06:50:16.413Z,96766.56
2022-08-25T06:52:43.987Z,96767.53
2022-08-25T06:55:12.178Z,96763.44
2022-08-25T06:57:39.802Z,96762.00
2022-08-25T07:00:10.864Z,96758.22
2022-08-25T07:02:40.111Z,96751.22
2022-08-25T07:05:13.201Z,96759.06
2022-08-25T07:07:43.235Z,96753.16
2022-08-25T07:12:53.591Z,96761.53
2022-08-25T07:15:22.634Z,96756.66
2022-08-25T07:20:48.315Z,96749.56
2022-08-25T07:23:37.272Z,96747.63
2022-08-25T07:26:27.098Z,96751.28
2022-08-25T07:29:09.433Z,96751.41
2022-08-25T07:31:39.158Z,96757.88
2022-08-25T07:34:26.292Z,96752.41
2022-08-25T07:50:54.745Z,96754.78
2022-08-25T08:13:28.515Z,96753.56
2022-08-25T08:15:57.668Z,96757.84
2022-08-25T08:19:00.828Z,96767.13
2022-08-25T08:21:42.205Z,96756.59
2022-08-25T08:24:19.724Z,96750.34
2022-08-25T08:27:22.316Z,96756.41
2022-08-25T09:13:37.218Z,96733.47
2022-08-25T09:16:34.418Z,96730.94
2022-08-25T09:19:21.356Z,96731.06
2022-08-25T09:21:58.134Z,96721.56
2022-08-25T09:24:41.960Z,96727.94
2022-08-25T09:27:18.338Z,96716.63
2022-08-25T09:35:53.764Z,96700.91
2022-08-25T09:43:44.258Z,96697.00
2022-08-25T10:29:50.032Z,96651.78
2022-08-25T10:45:48.487Z,96638.78
2022-08-25T10:48:44.095Z,96637.53
2022-08-25T10:51:31.292Z,96634.13
2022-08-25T10:54:07.881Z,96627.56
2022-08-25T10:56:40.941Z,96626.34
2022-08-25T10:59:22.368Z,96618.56
2022-08-25T11:02:11.336Z,96619.56
2022-08-25T11:04:45.060Z,96620.38
2022-08-25T11:07:24.213Z,96617.59
2022-08-25T11:09:55.117Z,96616.78
2022-08-25T11:12:31.131Z,96614.81
2022-08-25T11:15:02.250Z,96608.53
2022-08-25T11:17:42.599Z,96615.41
2022-08-25T11:20:19.155Z,96618.59
2022-08-25T11:22:52.438Z,96618.06
2022-08-25T11:25:25.936Z,96609.28
2022-08-25T11:27:59.179Z,96615.28
2022-08-25T11:30:29.040Z,96614.38
2022-08-25T11:32:58.322Z,96617.38
2022-08-25T11:35:30.050Z,96608.00
2022-08-25T11:38:15.579Z,96608.00
2022-08-25T11:40:55.601Z,96603.25
2022-08-25T11:43:54.607Z,96602.28
2022-08-25T11:46:33.370Z,96603.50
2022-08-25T11:49:26.625Z,96603.50
2022-08-25T11:51:54.372Z,96596.91
2022-08-25T11:54:26.419Z,96595.69
2022-08-25T11:57:02.227Z,96605.38
2022-08-25T12:00:02.603Z,96594.69
2022-08-25T12:02:34.543Z,96600.91
2022-08-25T12:05:04.643Z,96592.06
2022-08-25T12:08:18.822Z,96591.94
2022-08-25T12:11:10.598Z,96584.31
2022-08-25T12:13:45.133Z,96585.56
2022-08-25T12:16:43.582Z,96578.41
2022-08-25T12:19:26.651Z,96584.91
2022-08-25T12:21:59.794Z,96567.19
2022-08-25T12:24:51.937Z,96573.19
2022-08-25T12:27:28.641Z,96573.38
2022-08-25T12:30:05.224Z,96578.75
2022-08-25T12:33:05.554Z,96577.00
2022-08-25T12:35:38.451Z,96573.81
2022-08-25T12:38:13.725Z,96579.66
2022-08-25T12:40:59.293Z,96590.41
2022-08-25T12:43:33.224Z,96583.00
2022-08-25T12:46:34.224Z,96581.59
2022-08-25T12:49:03.681Z,96583.16
2022-08-25T12:51:50.555Z,96583.97
2022-08-25T12:54:25.292Z,96584.41
2022-08-25T12:56:57.247Z,96579.03
2022-08-25T12:59:34.474Z,96579.13
2022-08-25T13:02:30.301Z,96574.06
2022-08-25T13:05:17.698Z,96580.22
2022-08-25T13:08:00.859Z,96574.06
2022-08-25T13:10:43.396Z,96568.53
2022-08-25T13:13:20.543Z,96570.72
2022-08-25T13:15:59.674Z,96557.75
2022-08-25T13:18:29.810Z,96561.53
2022-08-25T13:21:06.640Z,96548.72
2022-08-25T13:23:38.144Z,96550.13
2022-08-25T13:26:07.621Z,96543.44
2022-08-25T13:28:40.819Z,96543.94
2022-08-25T13:31:10.671Z,96550.78
2022-08-25T13:33:38.353Z,96544.78
2022-08-25T13:36:24.758Z,96547.94
2022-08-25T13:38:52.407Z,96545.25
2022-08-25T13:41:29.171Z,96541.28
2022-08-25T13:44:00.837Z,96538.44
2022-08-25T13:46:31.603Z,96530.81
2022-08-25T13:49:05.219Z,96533.94
2022-08-25T13:51:32.860Z,96533.56
2022-08-25T13:54:03.162Z,96533.22
2022-08-25T13:56:40.051Z,96534.47
2022-08-25T13:59:21.439Z,96536.50
2022-08-25T14:01:50.333Z,96518.59
2022-08-25T14:04:25.563Z,96533.28
2022-08-25T14:07:25.365Z,96513.44
2022-08-25T14:09:56.888Z,96514.03
2022-08-25T14:12:33.320Z,96510.50
2022-08-25T14:15:05.400Z,96510.16
2022-08-25T14:17:39.642Z,96508.56
2022-08-25T14:20:17.862Z,96502.22
2022-08-25T14:22:45.519Z,96497.44
2022-08-25T14:25:13.428Z,96499.66
2022-08-25T14:28:06.527Z,96503.25
2022-08-25T14:30:35.684Z,96508.25
2022-08-25T14:33:04.966Z,96497.31
2022-08-25T14:35:34.495Z,96491.47
2022-08-25T14:38:08.390Z,96500.63
2022-08-25T14:40:36.154Z,96497.94
2022-08-25T14:43:05.397Z,96492.38
2022-08-25T14:45:38.966Z,96487.63
2022-08-25T14:48:10.174Z,96486.84
2022-08-25T14:50:42.029Z,96486.00
2022-08-25T14:53:11.041Z,96486.84
2022-08-25T14:55:39.792Z,96492.19
2022-08-25T14:58:09.723Z,96497.56
2022-08-25T15:00:41.189Z,96486.00
2022-08-25T15:03:09.013Z,96486.84
2022-08-25T15:05:36.815Z,96478.25
2022-08-25T15:08:22.805Z,96478.06
2022-08-25T15:10:50.775Z,96479.47
2022-08-25T15:13:19.755Z,96474.69
2022-08-25T15:15:52.293Z,96480.66
2022-08-25T15:18:21.542Z,96483.47
2022-08-25T15:20:50.196Z,96474.44
2022-08-25T15:23:18.359Z,96477.72
2022-08-25T15:25:47.274Z,96467.59
2022-08-25T15:28:17.414Z,96470.06
2022-08-25T15:30:46.644Z,96469.91
2022-08-25T15:33:14.241Z,96470.00
2022-08-25T15:35:42.366Z,96475.19
2022-08-25T15:38:11.085Z,96472.28
2022-08-25T15:40:39.477Z,96472.59
2022-08-25T15:43:07.322Z,96459.78
2022-08-25T15:45:36.001Z,96465.44
2022-08-25T15:48:06.926Z,96466.06
2022-08-25T15:50:37.280Z,96457.50
2022-08-25T15:53:08.435Z,96459.97
2022-08-25T15:55:39.152Z,96461.84
2022-08-25T15:58:08.666Z,96452.81
2022-08-25T16:00:36.803Z,96456.13
2022-08-25T16:03:08.100Z,96449.16
2022-08-25T16:05:36.417Z,96447.56
2022-08-25T16:08:05.335Z,96444.38
2022-08-25T16:10:35.243Z,96446.56
2022-08-25T16:13:04.749Z,96451.94
2022-08-25T16:15:33.595Z,96439.94
2022-08-25T16:18:02.501Z,96446.38
2022-08-25T16:20:36.513Z,96444.00
2022-08-25T16:23:05.260Z,96435.47
2022-08-25T16:25:33.152Z,96437.66
2022-08-25T16:28:04.304Z,96433.69
2022-08-25T16:30:31.856Z,96440.41
2022-08-25T16:32:59.400Z,96441.53
2022-08-25T16:35:29.347Z,96430.28
2022-08-25T16:37:58.447Z,96432.47
2022-08-25T16:40:28.716Z,96430.91
2022-08-25T16:42:56.614Z,96432.78
2022-08-25T16:45:24.647Z,96431.47
2022-08-25T22:47:06.240Z,96484.66
2022-08-25T22:49:35.322Z,96487.84
2022-08-25T22:52:03.331Z,96487.31
2022-08-25T22:54:30.845Z,96483.81
2022-08-25T22:57:05.901Z,96481.44
2022-08-25T22:59:34.810Z,96483.28
2022-08-25T23:02:02.365Z,96481.69
2022-08-25T23:04:31.310Z,96481.16
2022-08-25T23:06:58.879Z,96476.91
2022-08-25T23:09:26.639Z,96476.38
2022-08-25T23:11:54.159Z,96481.16
2022-08-25T23:14:21.789Z,96475.00
2022-08-25T23:16:49.866Z,96467.31
2022-08-25T23:19:18.056Z,96468.38
2022-08-25T23:22:07.222Z,96466.25
2022-08-25T23:24:34.766Z,96461.72
2022-08-25T23:27:04.412Z,96455.59
2022-08-25T23:29:34.110Z,96464.38
2022-08-25T23:32:01.980Z,96460.13
2022-08-25T23:34:30.516Z,96463.03
2022-08-25T23:37:03.716Z,96452.16
2022-08-25T23:39:31.402Z,96459.84
2022-08-25T23:41:58.924Z,96451.88
2022-08-25T23:44:27.475Z,96448.19
2022-08-25T23:46:55.429Z,96451.38
2022-08-25T23:49:25.807Z,96451.63
2022-08-25T23:51:56.085Z,96458.25
2022-08-25T23:54:30.927Z,96451.63
2022-08-25T23:56:59.056Z,96457.19
2022-08-25T23:59:26.632Z,96453.44
